sensor_id;sensor_type;location;lat;lon;timestamp;pressure;altitude;pressure_sealevel;temperature;humidity
24230;BME280;12362;50.004;8.006;2023-05-18T00:02:13;101511.41;;;7.14;100.00
24230;BME280;12362;50.004;8.006;2023-05-18T00:04:40;101511.66;;;6.99;100.00
24230;BME280;12362;50.004;8.006;2023-05-18T00:07:06;101509.88;;;7.02;100.00
24230;BME280;12362;50.004;8.006;2023-05-18T00:09:33;101500.13;;;7.19;100.00
24230;BME280;12362;50.004;8.006;2023-05-18T00:12:00;101493.22;;;7.21;100.00
24230;BME280;12362;50.004;8.006;2023-05-18T00:14:26;101495.13;;;7.10;100.00
24230;BME280;12362;50.004;8.006;2023-05-18T00:16:52;101498.69;;;7.03;100.00
24230;BME280;12362;50.004;8.006;2023-05-18T00:19:22;101492.75;;;6.97;100.00
24230;BME280;12362;50.004;8.006;2023-05-18T00:21:49;101494.59;;;6.92;100.00
24230;BME280;12362;50.004;8.006;2023-05-18T00:24:16;101498.88;;;6.91;100.00
24230;BME280;12362;50.004;8.006;2023-05-18T00:26:43;101495.38;;;6.94;100.00
24230;BME280;12362;50.004;8.006;2023-05-18T00:29:10;101490.09;;;7.01;100.00
24230;BME280;12362;50.004;8.006;2023-05-18T00:31:36;101502.97;;;7.04;100.00
24230;BME280;12362;50.004;8.006;2023-05-18T00:34:05;101503.09;;;6.98;100.00
24230;BME280;12362;50.004;8.006;2023-05-18T00:36:32;101499.75;;;6.90;100.00
24230;BME280;12362;50.004;8.006;2023-05-18T00:38:58;101501.78;;;6.72;100.00
24230;BME280;12362;50.004;8.006;2023-05-18T00:41:25;101505.50;;;6.54;100.00
24230;BME280;12362;50.004;8.006;2023-05-18T00:43:51;101489.31;;;6.45;100.00
24230;BME280;12362;50.004;8.006;2023-05-18T00:46:17;101504.13;;;6.31;100.00
24230;BME280;12362;50.004;8.006;2023-05-18T00:48:44;101505.13;;;6.20;100.00
24230;BME280;12362;50.004;8.006;2023-05-18T00:51:10;101507.63;;;6.27;100.00
24230;BME280;12362;50.004;8.006;2023-05-18T00:53:36;101504.34;;;6.15;100.00
24230;BME280;12362;50.004;8.006;2023-05-18T00:56:03;101506.91;;;6.16;100.00
24230;BME280;12362;50.004;8.006;2023-05-18T00:58:28;101500.84;;;6.20;100.00
24230;BME280;12362;50.004;8.006;2023-05-18T01:00:56;101494.03;;;6.15;100.00
24230;BME280;12362;50.004;8.006;2023-05-18T01:03:22;101494.81;;;6.20;100.00
24230;BME280;12362;50.004;8.006;2023-05-18T01:05:48;101500.00;;;6.18;100.00
24230;BME280;12362;50.004;8.006;2023-05-18T01:08:21;101497.44;;;6.17;100.00
24230;BME280;12362;50.004;8.006;2023-05-18T01:10:56;101490.75;;;6.04;100.00
24230;BME280;12362;50.004;8.006;2023-05-18T01:16:11;101488.28;;;5.95;100.00
24230;BME280;12362;50.004;8.006;2023-05-18T01:18:46;101483.97;;;5.97;100.00
24230;BME280;12362;50.004;8.006;2023-05-18T01:21:23;101482.25;;;5.96;100.00
24230;BME280;12362;50.004;8.006;2023-05-18T01:26:42;101487.44;;;5.94;100.00
24230;BME280;12362;50.004;8.006;2023-05-18T01:29:11;101489.06;;;6.03;100.00
24230;BME280;12362;50.004;8.006;2023-05-18T01:31:38;101484.84;;;5.96;100.00
24230;BME280;12362;50.004;8.006;2023-05-18T01:34:04;101495.22;;;5.90;100.00
24230;BME280;12362;50.004;8.006;2023-05-18T01:36:31;101493.53;;;5.89;100.00
24230;BME280;12362;50.004;8.006;2023-05-18T01:38:57;101491.94;;;5.76;100.00
24230;BME280;12362;50.004;8.006;2023-05-18T01:41:27;101491.06;;;5.75;100.00
24230;BME280;12362;50.004;8.006;2023-05-18T01:44:10;101488.63;;;5.65;100.00
24230;BME280;12362;50.004;8.006;2023-05-18T01:46:55;101494.56;;;5.71;100.00
24230;BME280;12362;50.004;8.006;2023-05-18T01:49:32;101493.75;;;5.66;100.00
24230;BME280;12362;50.004;8.006;2023-05-18T01:52:06;101492.91;;;5.66;100.00
24230;BME280;12362;50.004;8.006;2023-05-18T01:54:35;101493.03;;;5.52;100.00
24230;BME280;12362;50.004;8.006;2023-05-18T01:57:05;101487.84;;;5.57;100.00
24230;BME280;12362;50.004;8.006;2023-05-18T01:59:33;101497.38;;;5.50;100.00
24230;BME280;12362;50.004;8.006;2023-05-18T02:02:00;101489.59;;;5.53;100.00
24230;BME280;12362;50.004;8.006;2023-05-18T02:04:26;101484.41;;;5.58;100.00
24230;BME280;12362;50.004;8.006;2023-05-18T02:06:52;101485.31;;;5.52;100.00
24230;BME280;12362;50.004;8.006;2023-05-18T02:09:19;101484.53;;;5.47;100.00
24230;BME280;12362;50.004;8.006;2023-05-18T02:11:46;101485.38;;;5.49;100.00
24230;BME280;12362;50.004;8.006;2023-05-18T02:14:12;101488.88;;;5.44;100.00
24230;BME280;12362;50.004;8.006;2023-05-18T02:16:38;101485.50;;;5.38;100.00
24230;BME280;12362;50.004;8.006;2023-05-18T02:19:03;101480.16;;;5.52;100.00
24230;BME280;12362;50.004;8.006;2023-05-18T02:21:29;101487.09;;;5.50;100.00
24230;BME280;12362;50.004;8.006;2023-05-18T02:23:55;101489.81;;;5.36;100.00
24230;BME280;12362;50.004;8.006;2023-05-18T02:26:20;101484.78;;;5.24;100.00
24230;BME280;12362;50.004;8.006;2023-05-18T02:28:51;101492.56;;;5.19;100.00
24230;BME280;12362;50.004;8.006;2023-05-18T02:31:16;101489.09;;;5.22;100.00
24230;BME280;12362;50.004;8.006;2023-05-18T02:33:42;101490.88;;;5.15;100.00
24230;BME280;12362;50.004;8.006;2023-05-18T02:36:12;101491.56;;;5.31;100.00
24230;BME280;12362;50.004;8.006;2023-05-18T02:38:42;101486.44;;;5.29;100.00
24230;BME280;12362;50.004;8.006;2023-05-18T02:41:09;101477.94;;;5.21;100.00
24230;BME280;12362;50.004;8.006;2023-05-18T02:43:34;101480.53;;;5.20;100.00
24230;BME280;12362;50.004;8.006;2023-05-18T02:46:00;101487.34;;;5.25;100.00
24230;BME280;12362;50.004;8.006;2023-05-18T02:48:27;101489.00;;;5.31;100.00
24230;BME280;12362;50.004;8.006;2023-05-18T02:50:52;101479.72;;;5.13;100.00
24230;BME280;12362;50.004;8.006;2023-05-18T02:53:18;101487.34;;;5.22;100.00
24230;BME280;12362;50.004;8.006;2023-05-18T02:55:44;101489.19;;;5.13;100.00
24230;BME280;12362;50.004;8.006;2023-05-18T02:58:18;101490.78;;;5.24;100.00
24230;BME280;12362;50.004;8.006;2023-05-18T03:01:05;101489.19;;;5.13;100.00
24230;BME280;12362;50.004;8.006;2023-05-18T03:03:38;101487.56;;;5.03;100.00
24230;BME280;12362;50.004;8.006;2023-05-18T03:06:06;101491.00;;;5.00;100.00
24230;BME280;12362;50.004;8.006;2023-05-18T03:08:32;101487.53;;;5.07;100.00
24230;BME280;12362;50.004;8.006;2023-05-18T03:10:58;101484.91;;;5.10;100.00
24230;BME280;12362;50.004;8.006;2023-05-18T03:13:24;101497.75;;;5.10;100.00
24230;BME280;12362;50.004;8.006;2023-05-18T03:15:50;101490.81;;;5.23;100.00
24230;BME280;12362;50.004;8.006;2023-05-18T03:18:17;101494.16;;;5.29;100.00
24230;BME280;12362;50.004;8.006;2023-05-18T03:20:43;101491.72;;;5.16;100.00
24230;BME280;12362;50.004;8.006;2023-05-18T03:23:09;101495.31;;;5.00;100.00
24230;BME280;12362;50.004;8.006;2023-05-18T03:25:35;101491.81;;;5.05;100.00
24230;BME280;12362;50.004;8.006;2023-05-18T03:28:02;101489.31;;;4.98;100.00
24230;BME280;12362;50.004;8.006;2023-05-18T03:30:31;101496.16;;;5.02;100.00
24230;BME280;12362;50.004;8.006;2023-05-18T03:32:57;101487.56;;;5.03;100.00
24230;BME280;12362;50.004;8.006;2023-05-18T03:35:23;101490.97;;;5.03;100.00
24230;BME280;12362;50.004;8.006;2023-05-18T03:37:49;101499.59;;;5.01;100.00
24230;BME280;12362;50.004;8.006;2023-05-18T03:40:15;101492.78;;;4.95;100.00
24230;BME280;12362;50.004;8.006;2023-05-18T03:42:42;101494.44;;;5.01;100.00
24230;BME280;12362;50.004;8.006;2023-05-18T03:45:09;101495.25;;;5.04;100.00
24230;BME280;12362;50.004;8.006;2023-05-18T03:47:36;101500.44;;;5.00;100.00
24230;BME280;12362;50.004;8.006;2023-05-18T03:50:05;101507.47;;;4.78;100.00
24230;BME280;12362;50.004;8.006;2023-05-18T03:52:33;101512.63;;;4.78;100.00
24230;BME280;12362;50.004;8.006;2023-05-18T03:55:00;101504.00;;;4.87;100.00
24230;BME280;12362;50.004;8.006;2023-05-18T03:57:30;101502.31;;;4.83;100.00
24230;BME280;12362;50.004;8.006;2023-05-18T03:59:58;101498.88;;;4.84;100.00
24230;BME280;12362;50.004;8.006;2023-05-18T04:02:24;101506.63;;;4.79;100.00
24230;BME280;12362;50.004;8.006;2023-05-18T04:04:50;101507.44;;;4.86;100.00
24230;BME280;12362;50.004;8.006;2023-05-18T04:07:18;101506.47;;;4.96;100.00
24230;BME280;12362;50.004;8.006;2023-05-18T04:09:47;101510.72;;;5.03;100.00
24230;BME280;12362;50.004;8.006;2023-05-18T04:12:13;101508.13;;;5.07;100.00
24230;BME280;12362;50.004;8.006;2023-05-18T04:14:39;101511.50;;;5.14;100.00
24230;BME280;12362;50.004;8.006;2023-05-18T04:17:06;101509.81;;;5.08;100.00
24230;BME280;12362;50.004;8.006;2023-05-18T04:19:36;101513.16;;;5.16;100.00
24230;BME280;12362;50.004;8.006;2023-05-18T04:22:02;101516.53;;;5.21;100.00
24230;BME280;12362;50.004;8.006;2023-05-18T04:24:31;101511.13;;;5.48;100.00
24230;BME280;12362;50.004;8.006;2023-05-18T04:26:58;101512.84;;;5.49;100.00
24230;BME280;12362;50.004;8.006;2023-05-18T04:29:25;101523.13;;;5.50;100.00
24230;BME280;12362;50.004;8.006;2023-05-18T04:31:52;101512.69;;;5.64;100.00
24230;BME280;12362;50.004;8.006;2023-05-18T04:34:24;101520.22;;;5.82;100.00
24230;BME280;12362;50.004;8.006;2023-05-18T04:36:51;101517.41;;;6.03;100.00
24230;BME280;12362;50.004;8.006;2023-05-18T04:39:20;101523.38;;;6.05;100.00
24230;BME280;12362;50.004;8.006;2023-05-18T04:41:48;101516.41;;;6.11;100.00
24230;BME280;12362;50.004;8.006;2023-05-18T04:44:15;101520.59;;;6.20;100.00
24230;BME280;12362;50.004;8.006;2023-05-18T04:46:43;101514.38;;;6.35;100.00
24230;BME280;12362;50.004;8.006;2023-05-18T04:49:12;101517.66;;;6.46;100.00
24230;BME280;12362;50.004;8.006;2023-05-18T04:51:38;101520.78;;;6.66;100.00
24230;BME280;12362;50.004;8.006;2023-05-18T04:54:06;101525.03;;;6.70;100.00
24230;BME280;12362;50.004;8.006;2023-05-18T04:56:33;101519.53;;;6.93;100.00
24230;BME280;12362;50.004;8.006;2023-05-18T04:58:59;101520.84;;;7.16;100.00
24230;BME280;12362;50.004;8.006;2023-05-18T05:01:27;101520.75;;;7.20;100.00
24230;BME280;12362;50.004;8.006;2023-05-18T05:03:53;101519.56;;;7.39;100.00
24230;BME280;12362;50.004;8.006;2023-05-18T05:06:19;101504.63;;;7.55;100.00
24230;BME280;12362;50.004;8.006;2023-05-18T05:08:45;101513.00;;;7.69;100.00
24230;BME280;12362;50.004;8.006;2023-05-18T05:11:10;101514.47;;;7.80;100.00
24230;BME280;12362;50.004;8.006;2023-05-18T05:13:36;101514.28;;;7.89;100.00
24230;BME280;12362;50.004;8.006;2023-05-18T05:16:04;101506.84;;;8.16;100.00
24230;BME280;12362;50.004;8.006;2023-05-18T05:18:30;101508.19;;;8.34;100.00
24230;BME280;12362;50.004;8.006;2023-05-18T05:20:55;101507.72;;;8.55;100.00
24230;BME280;12362;50.004;8.006;2023-05-18T05:23:21;101501.97;;;8.79;100.00
24230;BME280;12362;50.004;8.006;2023-05-18T05:25:47;101501.63;;;8.92;100.00
24230;BME280;12362;50.004;8.006;2023-05-18T05:28:12;101506.47;;;9.05;100.00
24230;BME280;12362;50.004;8.006;2023-05-18T05:30:39;101494.06;;;9.18;100.00
24230;BME280;12362;50.004;8.006;2023-05-18T05:33:04;101503.97;;;9.34;100.00
24230;BME280;12362;50.004;8.006;2023-05-18T05:35:30;101501.00;;;9.48;100.00
24230;BME280;12362;50.004;8.006;2023-05-18T05:37:55;101502.53;;;9.56;100.00
24230;BME280;12362;50.004;8.006;2023-05-18T05:40:21;101504.84;;;9.65;100.00
24230;BME280;12362;50.004;8.006;2023-05-18T05:42:46;101501.91;;;9.77;100.00
24230;BME280;12362;50.004;8.006;2023-05-18T05:45:12;101494.53;;;9.94;100.00
24230;BME280;12362;50.004;8.006;2023-05-18T05:47:44;101491.66;;;10.04;100.00
24230;BME280;12362;50.004;8.006;2023-05-18T05:50:10;101500.75;;;10.19;100.00
24230;BME280;12362;50.004;8.006;2023-05-18T05:52:36;101495.91;;;10.36;100.00
24230;BME280;12362;50.004;8.006;2023-05-18T05:55:03;101496.16;;;10.56;100.00
24230;BME280;12362;50.004;8.006;2023-05-18T05:57:30;101494.41;;;10.82;100.00
24230;BME280;12362;50.004;8.006;2023-05-18T05:59:55;101492.16;;;10.97;100.00
24230;BME280;12362;50.004;8.006;2023-05-18T06:02:21;101490.38;;;10.99;100.00
24230;BME280;12362;50.004;8.006;2023-05-18T06:04:46;101495.72;;;11.21;100.00
24230;BME280;12362;50.004;8.006;2023-05-18T06:07:12;101501.47;;;11.55;100.00
24230;BME280;12362;50.004;8.006;2023-05-18T06:09:38;101483.41;;;11.97;100.00
24230;BME280;12362;50.004;8.006;2023-05-18T06:12:04;101488.75;;;12.17;100.00
24230;BME280;12362;50.004;8.006;2023-05-18T06:14:30;101494.44;;;12.04;100.00
24230;BME280;12362;50.004;8.006;2023-05-18T06:16:56;101499.00;;;12.43;100.00
24230;BME280;12362;50.004;8.006;2023-05-18T06:19:21;101492.66;;;12.71;100.00
24230;BME280;12362;50.004;8.006;2023-05-18T06:21:48;101491.69;;;12.95;100.00
24230;BME280;12362;50.004;8.006;2023-05-18T06:24:13;101484.56;;;13.20;100.00
24230;BME280;12362;50.004;8.006;2023-05-18T06:26:43;101489.69;;;13.42;100.00
24230;BME280;12362;50.004;8.006;2023-05-18T06:29:23;101491.91;;;13.51;100.00
24230;BME280;12362;50.004;8.006;2023-05-18T06:32:12;101492.03;;;13.28;100.00
24230;BME280;12362;50.004;8.006;2023-05-18T06:34:40;101492.38;;;13.40;100.00
24230;BME280;12362;50.004;8.006;2023-05-18T06:37:06;101483.81;;;14.15;100.00
24230;BME280;12362;50.004;8.006;2023-05-18T06:39:32;101490.03;;;14.11;100.00
24230;BME280;12362;50.004;8.006;2023-05-18T06:41:57;101486.91;;;14.23;100.00
24230;BME280;12362;50.004;8.006;2023-05-18T06:44:30;101490.16;;;13.89;100.00
24230;BME280;12362;50.004;8.006;2023-05-18T06:47:08;101480.41;;;15.02;100.00
24230;BME280;12362;50.004;8.006;2023-05-18T06:49:34;101474.19;;;15.55;95.68
24230;BME280;12362;50.004;8.006;2023-05-18T06:52:00;101483.03;;;15.02;94.98
24230;BME280;12362;50.004;8.006;2023-05-18T06:54:25;101476.84;;;15.20;88.93
24230;BME280;12362;50.004;8.006;2023-05-18T06:56:53;101485.59;;;15.37;91.50
24230;BME280;12362;50.004;8.006;2023-05-18T06:59:19;101477.00;;;16.00;88.47
24230;BME280;12362;50.004;8.006;2023-05-18T07:01:46;101481.28;;;15.85;83.30
24230;BME280;12362;50.004;8.006;2023-05-18T07:04:13;101477.66;;;16.03;85.06
24230;BME280;12362;50.004;8.006;2023-05-18T07:06:40;101486.09;;;15.60;78.75
24230;BME280;12362;50.004;8.006;2023-05-18T07:09:06;101485.25;;;15.60;88.34
24230;BME280;12362;50.004;8.006;2023-05-18T07:11:33;101483.94;;;15.68;80.99
24230;BME280;12362;50.004;8.006;2023-05-18T07:13:58;101475.13;;;15.86;81.59
24230;BME280;12362;50.004;8.006;2023-05-18T07:16:25;101476.16;;;16.15;79.56
24230;BME280;12362;50.004;8.006;2023-05-18T07:18:51;101476.59;;;16.84;75.15
24230;BME280;12362;50.004;8.006;2023-05-18T07:21:17;101482.91;;;16.96;73.80
24230;BME280;12362;50.004;8.006;2023-05-18T07:23:42;101467.72;;;17.59;68.70
24230;BME280;12362;50.004;8.006;2023-05-18T07:26:09;101468.72;;;17.43;68.45
24230;BME280;12362;50.004;8.006;2023-05-18T07:28:36;101465.56;;;17.94;68.25
24230;BME280;12362;50.004;8.006;2023-05-18T07:31:02;101457.47;;;17.97;64.35
24230;BME280;12362;50.004;8.006;2023-05-18T07:33:31;101465.81;;;18.17;64.89
24230;BME280;12362;50.004;8.006;2023-05-18T07:35:57;101459.34;;;18.09;66.99
24230;BME280;12362;50.004;8.006;2023-05-18T07:38:22;101458.56;;;18.34;64.07
24230;BME280;12362;50.004;8.006;2023-05-18T07:40:47;101462.41;;;18.43;62.27
24230;BME280;12362;50.004;8.006;2023-05-18T07:43:13;101456.81;;;18.35;63.28
24230;BME280;12362;50.004;8.006;2023-05-18T07:45:38;101450.31;;;18.67;60.83
24230;BME280;12362;50.004;8.006;2023-05-18T07:48:04;101449.25;;;18.69;62.59
24230;BME280;12362;50.004;8.006;2023-05-18T07:50:29;101450.00;;;18.45;59.06
24230;BME280;12362;50.004;8.006;2023-05-18T07:52:55;101445.63;;;18.84;59.36
24230;BME280;12362;50.004;8.006;2023-05-18T07:55:20;101441.25;;;18.97;57.13
24230;BME280;12362;50.004;8.006;2023-05-18T07:57:46;101431.72;;;19.33;57.81
24230;BME280;12362;50.004;8.006;2023-05-18T08:00:12;101441.75;;;19.28;53.24
24230;BME280;12362;50.004;8.006;2023-05-18T08:02:41;101435.66;;;19.65;57.68
24230;BME280;12362;50.004;8.006;2023-05-18T08:05:07;101436.91;;;19.72;55.42
24230;BME280;12362;50.004;8.006;2023-05-18T08:07:35;101432.91;;;19.42;53.11
24230;BME280;12362;50.004;8.006;2023-05-18T08:10:01;101432.34;;;19.87;51.22
24230;BME280;12362;50.004;8.006;2023-05-18T08:12:27;101422.97;;;19.70;51.98
24230;BME280;12362;50.004;8.006;2023-05-18T08:14:54;101431.81;;;20.07;55.56
24230;BME280;12362;50.004;8.006;2023-05-18T08:17:20;101425.09;;;20.73;54.53
24230;BME280;12362;50.004;8.006;2023-05-18T08:19:46;101425.06;;;20.38;54.76
24230;BME280;12362;50.004;8.006;2023-05-18T08:22:15;101429.06;;;20.31;50.63
24230;BME280;12362;50.004;8.006;2023-05-18T08:24:40;101433.19;;;20.00;52.19
24230;BME280;12362;50.004;8.006;2023-05-18T08:27:06;101428.72;;;20.25;51.44
24230;BME280;12362;50.004;8.006;2023-05-18T08:29:34;101427.25;;;20.09;54.18
24230;BME280;12362;50.004;8.006;2023-05-18T08:31:59;101421.56;;;20.85;52.16
24230;BME280;12362;50.004;8.006;2023-05-18T08:34:25;101414.22;;;21.11;54.81
24230;BME280;12362;50.004;8.006;2023-05-18T08:36:50;101414.25;;;21.22;48.29
24230;BME280;12362;50.004;8.006;2023-05-18T08:39:16;101412.72;;;21.31;46.65
24230;BME280;12362;50.004;8.006;2023-05-18T08:42:02;101413.69;;;20.49;50.61
24230;BME280;12362;50.004;8.006;2023-05-18T08:44:49;101408.78;;;21.02;53.58
24230;BME280;12362;50.004;8.006;2023-05-18T08:47:22;101412.69;;;20.86;50.06
24230;BME280;12362;50.004;8.006;2023-05-18T08:49:51;101404.25;;;21.60;53.59
24230;BME280;12362;50.004;8.006;2023-05-18T08:52:17;101396.72;;;22.20;47.44
24230;BME280;12362;50.004;8.006;2023-05-18T08:54:43;101401.13;;;21.66;47.19
24230;BME280;12362;50.004;8.006;2023-05-18T08:57:10;101399.53;;;21.86;46.92
24230;BME280;12362;50.004;8.006;2023-05-18T08:59:41;101403.97;;;20.96;48.89
24230;BME280;12362;50.004;8.006;2023-05-18T09:02:06;101396.28;;;21.49;50.77
24230;BME280;12362;50.004;8.006;2023-05-18T09:04:32;101393.63;;;21.93;50.02
24230;BME280;12362;50.004;8.006;2023-05-18T09:09:28;101395.13;;;21.64;47.83
24230;BME280;12362;50.004;8.006;2023-05-18T09:11:57;101396.88;;;21.42;47.83
24230;BME280;12362;50.004;8.006;2023-05-18T09:14:23;101389.69;;;21.88;44.12
24230;BME280;12362;50.004;8.006;2023-05-18T09:16:53;101378.47;;;22.06;46.26
24230;BME280;12362;50.004;8.006;2023-05-18T09:19:18;101383.53;;;21.98;46.10
24230;BME280;12362;50.004;8.006;2023-05-18T09:21:45;101379.53;;;22.14;49.42
24230;BME280;12362;50.004;8.006;2023-05-18T09:24:10;101371.00;;;22.85;47.44
24230;BME280;12362;50.004;8.006;2023-05-18T09:26:37;101367.66;;;23.03;45.35
24230;BME280;12362;50.004;8.006;2023-05-18T09:29:14;101375.28;;;21.59;46.21
24230;BME280;12362;50.004;8.006;2023-05-18T09:31:40;101380.41;;;22.04;43.32
24230;BME280;12362;50.004;8.006;2023-05-18T09:34:05;101371.72;;;22.24;46.51
24230;BME280;12362;50.004;8.006;2023-05-18T09:36:31;101373.94;;;21.86;45.53
24230;BME280;12362;50.004;8.006;2023-05-18T09:38:58;101366.47;;;22.76;44.95
24230;BME280;12362;50.004;8.006;2023-05-18T09:41:25;101363.44;;;23.00;43.58
24230;BME280;12362;50.004;8.006;2023-05-18T09:43:51;101376.81;;;22.79;44.35
24230;BME280;12362;50.004;8.006;2023-05-18T09:46:17;101375.53;;;22.31;40.75
24230;BME280;12362;50.004;8.006;2023-05-18T09:48:46;101367.22;;;23.18;44.61
24230;BME280;12362;50.004;8.006;2023-05-18T09:51:13;101355.44;;;24.10;42.08
24230;BME280;12362;50.004;8.006;2023-05-18T09:53:53;101361.34;;;23.04;42.64
24230;BME280;12362;50.004;8.006;2023-05-18T09:56:21;101361.91;;;23.18;42.88
24230;BME280;12362;50.004;8.006;2023-05-18T09:58:47;101357.81;;;22.53;40.13
24230;BME280;12362;50.004;8.006;2023-05-18T10:01:12;101362.38;;;22.51;41.60
24230;BME280;12362;50.004;8.006;2023-05-18T10:03:38;101354.88;;;22.56;38.94
24230;BME280;12362;50.004;8.006;2023-05-18T10:06:16;101356.53;;;22.37;41.70
24230;BME280;12362;50.004;8.006;2023-05-18T10:08:47;101345.41;;;22.74;39.60
24230;BME280;12362;50.004;8.006;2023-05-18T10:11:16;101338.63;;;22.81;42.32
24230;BME280;12362;50.004;8.006;2023-05-18T10:13:44;101337.16;;;22.88;44.10
24230;BME280;12362;50.004;8.006;2023-05-18T10:16:11;101329.88;;;23.70;41.81
24230;BME280;12362;50.004;8.006;2023-05-18T10:18:37;101337.97;;;23.29;39.31
24230;BME280;12362;50.004;8.006;2023-05-18T10:21:04;101337.53;;;22.84;42.98
24230;BME280;12362;50.004;8.006;2023-05-18T10:23:35;101338.19;;;22.76;39.63
24230;BME280;12362;50.004;8.006;2023-05-18T10:26:04;101337.59;;;22.93;39.51
24230;BME280;12362;50.004;8.006;2023-05-18T10:28:40;101333.75;;;23.57;41.75
24230;BME280;12362;50.004;8.006;2023-05-18T10:31:06;101328.81;;;23.13;42.74
24230;BME280;12362;50.004;8.006;2023-05-18T10:33:34;101343.44;;;22.56;41.22
24230;BME280;12362;50.004;8.006;2023-05-18T10:36:01;101323.75;;;22.90;41.29
24230;BME280;12362;50.004;8.006;2023-05-18T10:38:27;101322.16;;;22.78;39.27
24230;BME280;12362;50.004;8.006;2023-05-18T10:41:00;101330.41;;;22.64;38.83
24230;BME280;12362;50.004;8.006;2023-05-18T10:43:27;101327.91;;;22.83;40.81
24230;BME280;12362;50.004;8.006;2023-05-18T10:45:58;101319.44;;;22.48;39.55
24230;BME280;12362;50.004;8.006;2023-05-18T10:48:25;101313.38;;;22.77;37.65
24230;BME280;12362;50.004;8.006;2023-05-18T10:50:52;101313.56;;;23.05;40.17
24230;BME280;12362;50.004;8.006;2023-05-18T10:53:20;101317.75;;;23.08;41.05
24230;BME280;12362;50.004;8.006;2023-05-18T10:55:47;101317.63;;;22.69;45.03
24230;BME280;12362;50.004;8.006;2023-05-18T10:58:21;101308.50;;;23.62;38.59
24230;BME280;12362;50.004;8.006;2023-05-18T11:00:54;101296.38;;;22.80;38.57
24230;BME280;12362;50.004;8.006;2023-05-18T11:03:20;101302.44;;;23.11;43.22
24230;BME280;12362;50.004;8.006;2023-05-18T11:05:50;101312.63;;;23.16;42.37
24230;BME280;12362;50.004;8.006;2023-05-18T11:08:26;101299.94;;;23.79;37.27
24230;BME280;12362;50.004;8.006;2023-05-18T11:10:59;101309.97;;;22.23;40.75
24230;BME280;12362;50.004;8.006;2023-05-18T11:13:28;101302.22;;;23.03;39.54
24230;BME280;12362;50.004;8.006;2023-05-18T11:24:17;101291.13;;;23.09;40.12
24230;BME280;12362;50.004;8.006;2023-05-18T11:26:48;101282.25;;;24.27;42.74
24230;BME280;12362;50.004;8.006;2023-05-18T11:29:39;101275.50;;;24.80;38.11
24230;BME280;12362;50.004;8.006;2023-05-18T11:32:26;101283.97;;;23.70;42.37
24230;BME280;12362;50.004;8.006;2023-05-18T11:34:54;101273.28;;;23.99;37.70
24230;BME280;12362;50.004;8.006;2023-05-18T11:40:04;101270.66;;;24.56;41.57
24230;BME280;12362;50.004;8.006;2023-05-18T11:42:34;101268.09;;;23.79;37.05
24230;BME280;12362;50.004;8.006;2023-05-18T11:45:11;101270.13;;;22.97;38.14
24230;BME280;12362;50.004;8.006;2023-05-18T11:47:38;101269.66;;;23.52;40.85
24230;BME280;12362;50.004;8.006;2023-05-18T11:50:08;101260.75;;;24.20;37.51
24230;BME280;12362;50.004;8.006;2023-05-18T11:52:46;101263.50;;;23.90;40.70
24230;BME280;12362;50.004;8.006;2023-05-18T11:55:13;101262.41;;;23.54;38.65
24230;BME280;12362;50.004;8.006;2023-05-18T11:57:41;101263.16;;;23.65;39.29
24230;BME280;12362;50.004;8.006;2023-05-18T12:00:09;101257.91;;;24.12;41.77
24230;BME280;12362;50.004;8.006;2023-05-18T12:02:42;101259.44;;;23.77;42.94
24230;BME280;12362;50.004;8.006;2023-05-18T12:05:08;101254.16;;;24.43;37.08
24230;BME280;12362;50.004;8.006;2023-05-18T12:07:34;101256.94;;;23.85;41.56
24230;BME280;12362;50.004;8.006;2023-05-18T12:10:02;101252.06;;;24.09;41.41
24230;BME280;12362;50.004;8.006;2023-05-18T12:12:28;101255.63;;;25.29;40.99
24230;BME280;12362;50.004;8.006;2023-05-18T12:14:56;101253.72;;;25.49;38.54
24230;BME280;12362;50.004;8.006;2023-05-18T12:17:22;101256.09;;;24.32;38.11
24230;BME280;12362;50.004;8.006;2023-05-18T12:19:49;101244.19;;;25.10;36.50
24230;BME280;12362;50.004;8.006;2023-05-18T12:22:15;101233.09;;;25.95;38.85
24230;BME280;12362;50.004;8.006;2023-05-18T12:24:41;101242.78;;;25.52;35.41
24230;BME280;12362;50.004;8.006;2023-05-18T12:27:09;101241.63;;;24.91;39.75
24230;BME280;12362;50.004;8.006;2023-05-18T12:29:41;101239.50;;;25.31;39.36
24230;BME280;12362;50.004;8.006;2023-05-18T12:32:08;101247.31;;;24.60;39.73
24230;BME280;12362;50.004;8.006;2023-05-18T12:34:35;101231.94;;;25.36;37.38
24230;BME280;12362;50.004;8.006;2023-05-18T12:37:01;101227.25;;;25.65;36.15
24230;BME280;12362;50.004;8.006;2023-05-18T12:39:27;101222.59;;;25.49;35.58
24230;BME280;12362;50.004;8.006;2023-05-18T12:41:52;101231.03;;;24.72;39.53
24230;BME280;12362;50.004;8.006;2023-05-18T12:44:18;101231.53;;;25.31;39.45
24230;BME280;12362;50.004;8.006;2023-05-18T12:46:46;101229.66;;;24.68;37.56
24230;BME280;12362;50.004;8.006;2023-05-18T12:49:12;101225.63;;;24.55;36.84
24230;BME280;12362;50.004;8.006;2023-05-18T12:51:38;101223.38;;;25.05;35.95
24230;BME280;12362;50.004;8.006;2023-05-18T12:54:05;101231.72;;;24.83;37.55
24230;BME280;12362;50.004;8.006;2023-05-18T12:56:53;101226.91;;;24.96;38.20
24230;BME280;12362;50.004;8.006;2023-05-18T12:59:26;101211.22;;;25.57;36.20
24230;BME280;12362;50.004;8.006;2023-05-18T13:01:55;101205.91;;;25.57;36.25
24230;BME280;12362;50.004;8.006;2023-05-18T13:04:21;101211.41;;;24.92;35.34
24230;BME280;12362;50.004;8.006;2023-05-18T13:06:47;101216.06;;;25.17;39.78
24230;BME280;12362;50.004;8.006;2023-05-18T13:09:16;101215.63;;;24.85;34.93
24230;BME280;12362;50.004;8.006;2023-05-18T13:11:51;101218.44;;;24.83;39.78
24230;BME280;12362;50.004;8.006;2023-05-18T13:14:20;101207.19;;;24.89;36.28